Normal, IL

12:43 PM CDT on August 03, 2015 (GMT -0500)
Park West | | Change Station
CLOSE
Current Station
Personal Weather Station
Location: Normal, IL
Elevation: 804 ft
Nearby Weather Stations

Elev 804 ft 40.53 °N, 89.02 °W | Updated 6 minutes ago

Mostly Cloudy
Mostly Cloudy
84.0 °F
Feels Like 88 °F
N
7.8
Wind Variable Wind from WNW

Today
High -- | Low -- °F
--% Chance of Precip.
Yesterday
High -- | Low -- °F
Precip. -- in
5:54 AM 8:08 PM
Waning Gibbous, 85% visible
Pressure 29.86 in
Visibility 10.0 miles
Clouds Mostly Cloudy 2600 ft
Heat Index 88 °F
Dew Point 69 °F
Humidity 61%
Rainfall 0.00 in
Snow Depth Not available.
UV 5 out of 12
Pollen 6.30 out of 12
Air Quality Not available.
Flu Activity Not available.
METAR KBMI 031656Z 30010KT 10SM BKN026 28/21 A2991 RMK AO2 T02770205 SLP112

More Conditions Fewer Conditions

Pressure 29.86 in
Visibility 10.0 miles
Clouds Mostly Cloudy 2600 ft
Heat Index 88 °F
Dew Point 69 °F
Humidity 61%
Rainfall 0.00 in
Snow Depth Not available.
UV 5 out of 12
Pollen 6.30 out of 12
Air Quality Not available.
Flu Activity Not available.
METAR KBMI 031656Z 30010KT 10SM BKN026 28/21 A2991 RMK AO2 T02770205 SLP112

More Conditions Fewer Conditions

10-Day Weather Forecast

×

Almanac

Astronomy

Aug. 03, 2015 Rise Set
Actual Time
Civil Twilight
Nautical Twilight
Astronomical Twilight
Moon
Length of Visible Light
Length of Day
Tomorrow will be .
, % of the Moon is Illuminated

Today's Extremes

State Highs State Lows

Community

WunderPhotos

Upload Photos

1,843,694 photos uploaded!

WunderBlogs® & News

Nearby

Air Quality

  Air Quality AQ Index Pollutant
Not available.

Snow Depth

Station Depth Elevation

Earthquake Activity

City Distance Mag. Time & Date
Minimum magnitude displayed is 2.5.

Coastal Water Temperatures

Place Temperature

Stations

Nearby Weather Stations

Station Location Temp. Windchill Dew Point Humidity Wind Precip. Elev Updated Type